createdAt,value
2019-01-10T00:01:13.132Z,1.77
2019-01-10T00:04:17.392Z,1.60
2019-01-10T00:07:21.737Z,1.54
2019-01-10T00:10:25.959Z,1.48
2019-01-10T00:13:30.251Z,1.95
2019-01-10T00:16:34.528Z,1.60
2019-01-10T00:19:38.811Z,1.58
2019-01-10T00:22:43.092Z,1.65
2019-01-10T00:25:47.381Z,1.86
2019-01-10T00:28:51.779Z,1.96
2019-01-10T00:31:56.047Z,1.91
2019-01-10T00:35:00.326Z,1.88
2019-01-10T00:38:04.632Z,1.78
2019-01-10T00:41:08.981Z,1.51
2019-01-10T00:44:13.337Z,1.28
2019-01-10T00:47:17.624Z,1.06
2019-01-10T00:50:24.152Z,0.89
2019-01-10T00:53:28.423Z,0.69
2019-01-10T00:56:32.696Z,0.55
2019-01-10T00:59:36.974Z,0.44
2019-01-10T01:02:41.267Z,0.30
2019-01-10T01:05:45.613Z,0.24
2019-01-10T01:08:49.978Z,0.16
2019-01-10T01:11:54.312Z,0.17
2019-01-10T01:14:58.600Z,-0.01
2019-01-10T01:18:03.003Z,-0.12
2019-01-10T01:21:07.357Z,-0.20
2019-01-10T01:24:11.628Z,-0.36
2019-01-10T01:27:15.971Z,-0.61
2019-01-10T01:30:22.162Z,-0.81
2019-01-10T01:33:26.598Z,-0.87
2019-01-10T01:36:30.873Z,-0.97
2019-01-10T01:39:35.137Z,-0.99
2019-01-10T01:42:39.537Z,-1.01
2019-01-10T01:45:43.862Z,-1.03
2019-01-10T01:48:48.221Z,-1.04
2019-01-10T01:51:52.487Z,-1.06
2019-01-10T01:54:56.844Z,-1.06
2019-01-10T01:58:01.262Z,-0.99
2019-01-10T02:01:05.893Z,-1.03
2019-01-10T02:04:10.168Z,-1.08
2019-01-10T02:07:14.457Z,-1.08
2019-01-10T02:10:23.630Z,-1.09
2019-01-10T02:13:27.911Z,-1.13
2019-01-10T02:16:32.157Z,-1.15
2019-01-10T02:19:36.463Z,-1.23
2019-01-10T02:22:40.931Z,-1.24
2019-01-10T02:25:45.191Z,-1.23
2019-01-10T02:28:49.483Z,-1.25
2019-01-10T02:31:53.813Z,-1.25
2019-01-10T02:34:58.085Z,-1.18
2019-01-10T02:38:02.397Z,-1.25
2019-01-10T02:41:06.747Z,-1.26
2019-01-10T02:44:11.217Z,-1.28
2019-01-10T02:47:15.531Z,-1.24
2019-01-10T02:50:21.949Z,-1.18
2019-01-10T02:53:26.241Z,-1.17
2019-01-10T02:56:30.484Z,-1.12
2019-01-10T02:59:34.786Z,-1.14
2019-01-10T03:02:39.051Z,-1.12
2019-01-10T03:05:43.386Z,-1.18
2019-01-10T03:08:47.640Z,-1.17
2019-01-10T03:11:51.933Z,-1.20
2019-01-10T03:14:56.327Z,-1.24
2019-01-10T03:18:00.718Z,-1.21
2019-01-10T03:21:05.156Z,-1.27
2019-01-10T03:24:09.448Z,-1.29
2019-01-10T03:27:13.828Z,-1.25
2019-01-10T03:30:19.544Z,-1.28
2019-01-10T03:33:23.869Z,-1.29
2019-01-10T03:36:28.217Z,-1.35
2019-01-10T03:39:32.533Z,-1.30
2019-01-10T03:42:36.919Z,-1.28
2019-01-10T03:45:41.222Z,-1.27
2019-01-10T03:48:45.463Z,-1.29
2019-01-10T03:51:49.741Z,-1.36
2019-01-10T03:54:54.060Z,-1.34
2019-01-10T03:57:58.370Z,-1.36
2019-01-10T04:01:02.754Z,-1.31
2019-01-10T04:04:07.031Z,-1.28
2019-01-10T04:07:11.438Z,-1.31
2019-01-10T04:10:15.941Z,-1.33
2019-01-10T04:13:20.207Z,-1.31
2019-01-10T04:16:24.536Z,-1.30
2019-01-10T04:19:28.811Z,-1.29
2019-01-10T04:22:33.090Z,-1.30
2019-01-10T04:25:37.346Z,-1.29
2019-01-10T04:28:41.721Z,-1.30
2019-01-10T04:31:45.997Z,-1.29
2019-01-10T04:34:50.327Z,-1.29
2019-01-10T04:37:54.681Z,-1.24
2019-01-10T04:40:58.928Z,-1.18
2019-01-10T04:44:07.209Z,-1.19
2019-01-10T04:47:09.300Z,-1.18
2019-01-10T04:50:14.400Z,-1.20
2019-01-10T04:53:18.926Z,-1.17
2019-01-10T04:56:23.238Z,-1.17
2019-01-10T04:59:27.603Z,-1.09
2019-01-10T05:02:31.881Z,-1.14
2019-01-10T05:05:36.202Z,-1.13
2019-01-10T05:08:40.533Z,-1.06
2019-01-10T05:11:44.902Z,-1.08
2019-01-10T05:14:49.251Z,-1.02
2019-01-10T05:17:53.552Z,-0.97
2019-01-10T05:20:57.910Z,-0.88
2019-01-10T05:24:02.286Z,-0.82
2019-01-10T05:27:06.554Z,-0.73
2019-01-10T05:30:14.976Z,-0.80
2019-01-10T05:33:19.257Z,-0.81
2019-01-10T05:36:23.528Z,-0.81
2019-01-10T05:39:27.812Z,-0.76
2019-01-10T05:42:32.123Z,-0.74
2019-01-10T05:45:36.467Z,-0.68
2019-01-10T05:48:47.067Z,-0.72
2019-01-10T05:51:46.960Z,-0.67
2019-01-10T05:54:51.526Z,-0.61
2019-01-10T05:57:55.797Z,-0.66
2019-01-10T06:01:00.094Z,-0.60
2019-01-10T06:04:04.467Z,-0.60
2019-01-10T06:07:08.746Z,-0.57
2019-01-10T06:10:16.635Z,-0.57
2019-01-10T06:13:21.036Z,-0.54
2019-01-10T06:16:25.297Z,-0.50
2019-01-10T06:19:29.588Z,-0.50
2019-01-10T06:22:33.890Z,-0.50
2019-01-10T06:25:38.226Z,-0.53
2019-01-10T06:28:42.510Z,-0.52
2019-01-10T06:31:46.806Z,-0.53
2019-01-10T06:34:51.080Z,-0.51
2019-01-10T06:37:55.391Z,-0.47
2019-01-10T06:40:59.695Z,-0.44
2019-01-10T06:44:04.130Z,-0.44
2019-01-10T06:47:08.466Z,-0.49
2019-01-10T06:50:13.775Z,-0.44
2019-01-10T06:53:18.000Z,-0.41
2019-01-10T06:56:22.266Z,-0.44
2019-01-10T06:59:26.540Z,-0.44
2019-01-10T07:02:30.826Z,-0.47
2019-01-10T07:05:35.120Z,-0.43
2019-01-10T07:08:39.412Z,-0.42
2019-01-10T07:11:43.742Z,-0.43
2019-01-10T07:14:53.507Z,-0.44
2019-01-10T07:17:54.209Z,-0.40
2019-01-10T07:20:58.645Z,-0.35
2019-01-10T07:24:02.961Z,-0.39
2019-01-10T07:27:07.256Z,-0.44
2019-01-10T07:30:13.517Z,-0.41
2019-01-10T07:33:17.911Z,-0.36
2019-01-10T07:36:22.250Z,-0.36
2019-01-10T07:39:26.581Z,-0.38
2019-01-10T07:42:34.582Z,-0.28
2019-01-10T07:45:38.886Z,-0.32
2019-01-10T07:48:44.749Z,-0.27
2019-01-10T07:51:49.021Z,-0.26
2019-01-10T07:54:53.329Z,-0.23
2019-01-10T07:57:57.619Z,-0.21
2019-01-10T08:01:01.887Z,-0.22
2019-01-10T08:04:06.165Z,-0.25
2019-01-10T08:07:10.516Z,-0.19
2019-01-10T08:10:15.955Z,-0.10
2019-01-10T08:13:20.270Z,-0.14
2019-01-10T08:16:24.624Z,-0.16
2019-01-10T08:19:28.963Z,-0.09
2019-01-10T08:22:33.319Z,0.01
2019-01-10T08:25:37.614Z,0.02
2019-01-10T08:28:41.930Z,-0.02
2019-01-10T08:31:46.230Z,-0.01
2019-01-10T08:34:51.323Z,0.12
2019-01-10T08:37:55.719Z,0.13
2019-01-10T08:41:00.035Z,0.17
2019-01-10T08:44:04.713Z,0.15
2019-01-10T08:47:09.044Z,0.15
2019-01-10T08:50:19.242Z,0.13
2019-01-10T08:53:23.530Z,0.18
2019-01-10T08:56:27.840Z,0.22
2019-01-10T08:59:32.146Z,0.23
2019-01-10T09:02:36.470Z,0.31
2019-01-10T09:05:40.744Z,0.28
2019-01-10T09:08:45.042Z,0.38
2019-01-10T09:11:49.379Z,0.40
2019-01-10T09:14:53.676Z,0.45
2019-01-10T09:17:58.076Z,0.50
2019-01-10T09:21:04.503Z,0.57
2019-01-10T09:24:08.494Z,0.55
2019-01-10T09:27:12.879Z,0.66
2019-01-10T09:30:18.944Z,0.64
2019-01-10T09:33:23.329Z,0.69
2019-01-10T09:36:27.779Z,0.77
2019-01-10T09:39:32.085Z,0.84
2019-01-10T09:42:36.401Z,0.80
2019-01-10T09:45:43.407Z,0.78
2019-01-10T09:48:46.835Z,1.03
2019-01-10T09:51:51.155Z,1.10
2019-01-10T09:54:55.675Z,1.11
2019-01-10T09:57:59.997Z,1.09
2019-01-10T10:01:04.630Z,1.18
2019-01-10T10:04:08.914Z,1.29
2019-01-10T10:07:13.191Z,1.20
2019-01-10T10:10:18.459Z,1.36
2019-01-10T10:13:22.694Z,1.43
2019-01-10T10:16:27.049Z,1.46
2019-01-10T10:19:31.390Z,1.53
2019-01-10T10:22:35.773Z,1.40
2019-01-10T10:25:40.079Z,1.47
2019-01-10T10:28:44.405Z,1.51
2019-01-10T10:31:48.675Z,1.49
2019-01-10T10:34:53.024Z,1.61
2019-01-10T10:37:57.430Z,1.80
2019-01-10T10:41:01.845Z,1.71
2019-01-10T10:44:06.193Z,1.81
2019-01-10T10:47:10.496Z,1.99
2019-01-10T10:50:17.034Z,1.95
2019-01-10T10:53:21.304Z,1.96
2019-01-10T10:56:25.621Z,2.06
2019-01-10T10:59:29.940Z,2.17
2019-01-10T11:02:34.235Z,2.14
2019-01-10T11:05:38.521Z,1.95
2019-01-10T11:08:44.597Z,2.15
2019-01-10T11:11:48.823Z,2.03
2019-01-10T11:14:53.164Z,2.25
2019-01-10T11:17:57.594Z,2.58
2019-01-10T11:21:01.904Z,2.91
2019-01-10T11:24:06.710Z,3.12
2019-01-10T11:27:11.005Z,2.81
2019-01-10T11:30:17.205Z,2.37
2019-01-10T11:33:21.497Z,2.12
2019-01-10T11:36:25.751Z,2.39
2019-01-10T11:39:30.067Z,2.31
2019-01-10T11:42:34.369Z,2.20
2019-01-10T11:45:38.704Z,2.15
2019-01-10T11:48:42.985Z,2.07
2019-01-10T11:51:47.266Z,2.12
2019-01-10T11:54:51.591Z,2.36
2019-01-10T11:57:55.850Z,2.06
2019-01-10T12:01:00.176Z,2.10
2019-01-10T12:04:04.446Z,2.20
2019-01-10T12:07:08.877Z,1.88
2019-01-10T12:10:13.468Z,2.10
2019-01-10T12:13:17.759Z,2.32
2019-01-10T12:16:28.419Z,2.40
2019-01-10T12:19:28.153Z,2.50
2019-01-10T12:22:32.461Z,2.52
2019-01-10T12:25:38.022Z,2.35
2019-01-10T12:28:42.308Z,2.22
2019-01-10T12:31:46.676Z,2.42
2019-01-10T12:34:51.021Z,2.38
2019-01-10T12:37:55.359Z,2.55
2019-01-10T12:40:59.713Z,2.36
2019-01-10T12:44:06.363Z,2.51
2019-01-10T12:47:10.330Z,2.55
2019-01-10T12:50:32.046Z,2.54
2019-01-10T12:53:36.360Z,2.61
2019-01-10T12:56:40.657Z,2.57
2019-01-10T12:59:44.960Z,2.60
2019-01-10T13:02:49.322Z,2.67
2019-01-10T13:05:53.644Z,2.71
2019-01-10T13:08:58.024Z,2.73
2019-01-10T13:12:02.408Z,2.60
2019-01-10T13:15:08.671Z,2.59
2019-01-10T13:18:12.988Z,2.50
2019-01-10T13:21:17.362Z,2.60
2019-01-10T13:24:21.686Z,2.52
2019-01-10T13:27:25.990Z,2.53
2019-01-10T13:30:30.295Z,2.72
2019-01-10T13:33:34.705Z,2.83
2019-01-10T13:36:39.070Z,2.81
2019-01-10T13:39:43.354Z,2.93
2019-01-10T13:42:47.738Z,2.71
2019-01-10T13:45:52.068Z,2.95
2019-01-10T13:48:58.621Z,2.70
2019-01-10T13:52:02.953Z,2.65
2019-01-10T13:55:07.764Z,2.72
2019-01-10T13:58:12.103Z,2.70
2019-01-10T14:01:16.435Z,2.64
2019-01-10T14:04:20.849Z,2.46
2019-01-10T14:07:26.268Z,2.49
2019-01-10T14:10:30.670Z,2.39
2019-01-10T14:13:34.964Z,2.37
2019-01-10T14:16:39.249Z,2.26
2019-01-10T14:19:43.560Z,2.17
2019-01-10T14:22:47.909Z,2.11
2019-01-10T14:25:52.210Z,2.03
2019-01-10T14:28:56.503Z,1.95
2019-01-10T14:32:01.053Z,1.92
2019-01-10T14:35:05.903Z,1.83
2019-01-10T14:38:10.484Z,1.78
2019-01-10T14:41:14.812Z,1.78
2019-01-10T14:44:19.124Z,1.73
2019-01-10T14:47:23.485Z,1.63
2019-01-10T14:50:28.060Z,1.61
2019-01-10T14:53:32.915Z,1.52
2019-01-10T14:56:37.428Z,1.50
2019-01-10T14:59:41.835Z,1.49
2019-01-10T15:02:46.133Z,1.40
2019-01-10T15:05:50.466Z,1.32
2019-01-10T15:08:54.832Z,1.25
2019-01-10T15:11:59.124Z,1.20
2019-01-10T15:15:03.539Z,1.16
2019-01-10T15:18:07.869Z,1.13
2019-01-10T15:21:12.119Z,1.11
2019-01-10T15:24:16.509Z,1.03
2019-01-10T15:27:20.859Z,0.93
2019-01-10T15:30:26.879Z,0.83
2019-01-10T15:33:31.395Z,0.75
2019-01-10T15:36:35.714Z,0.69
2019-01-10T15:39:40.082Z,0.63
2019-01-10T15:42:44.323Z,0.57
2019-01-10T15:45:48.695Z,0.54
2019-01-10T15:48:53.031Z,0.57
2019-01-10T15:51:57.398Z,0.53
2019-01-10T15:55:01.701Z,0.49
2019-01-10T15:58:06.063Z,0.45
2019-01-10T16:01:10.433Z,0.49
2019-01-10T16:04:14.788Z,0.48
2019-01-10T16:07:19.173Z,0.46
2019-01-10T16:10:23.580Z,0.49
2019-01-10T16:13:27.867Z,0.53
2019-01-10T16:16:32.504Z,0.51
2019-01-10T16:19:37.928Z,0.51
2019-01-10T16:22:42.597Z,0.49
2019-01-10T16:25:46.905Z,0.51
2019-01-10T16:28:51.369Z,0.51
2019-01-10T16:31:55.689Z,0.53
2019-01-10T16:35:00.185Z,0.52
2019-01-10T16:38:04.621Z,0.58
2019-01-10T16:41:08.914Z,0.59
2019-01-10T16:44:13.227Z,0.69
2019-01-10T16:47:17.563Z,0.67
2019-01-10T16:50:22.910Z,0.67
2019-01-10T16:53:27.202Z,0.68
2019-01-10T16:56:31.503Z,0.68
2019-01-10T16:59:35.810Z,0.67
2019-01-10T17:02:40.059Z,0.60
2019-01-10T17:05:44.399Z,0.57
2019-01-10T17:08:48.759Z,0.63
2019-01-10T17:11:53.504Z,0.55
2019-01-10T17:14:57.793Z,0.55
2019-01-10T17:18:02.109Z,0.65
2019-01-10T17:21:06.409Z,0.63
2019-01-10T17:24:10.754Z,0.65
2019-01-10T17:27:15.075Z,0.68
2019-01-10T17:30:27.177Z,0.72
2019-01-10T17:33:31.422Z,0.77
2019-01-10T17:36:35.728Z,0.76
2019-01-10T17:39:39.959Z,0.76
2019-01-10T17:42:44.509Z,0.76
2019-01-10T17:45:48.798Z,0.83
2019-01-10T17:48:53.162Z,0.77
2019-01-10T17:51:57.438Z,0.79
2019-01-10T17:55:01.751Z,0.79
2019-01-10T17:58:06.678Z,0.80
2019-01-10T18:01:10.993Z,0.81
2019-01-10T18:04:15.338Z,0.82
2019-01-10T18:07:19.768Z,0.81
2019-01-10T18:10:24.235Z,0.83
2019-01-10T18:13:28.579Z,0.91
2019-01-10T18:16:32.864Z,0.86
2019-01-10T18:19:37.179Z,0.82
2019-01-10T18:22:41.453Z,0.87
2019-01-10T18:25:45.827Z,0.89
2019-01-10T18:28:50.143Z,0.86
2019-01-10T18:31:54.404Z,0.90
2019-01-10T18:34:58.958Z,0.92
2019-01-10T18:38:03.231Z,0.96
2019-01-10T18:41:07.575Z,0.97
2019-01-10T18:44:11.904Z,0.96
2019-01-10T18:47:16.269Z,0.96
2019-01-10T18:50:21.834Z,1.02
2019-01-10T18:53:26.118Z,1.02
2019-01-10T18:56:30.411Z,1.02
2019-01-10T18:59:34.853Z,1.07
2019-01-10T19:02:40.324Z,1.10
2019-01-10T19:05:44.703Z,1.06
2019-01-10T19:08:49.018Z,1.10
2019-01-10T19:11:53.662Z,1.06
2019-01-10T19:14:57.988Z,1.02
2019-01-10T19:18:03.558Z,1.02
2019-01-10T19:21:08.022Z,0.99
2019-01-10T19:24:12.379Z,1.06
2019-01-10T19:27:16.712Z,0.99
2019-01-10T19:30:23.377Z,1.04
2019-01-10T19:33:27.722Z,1.04
2019-01-10T19:36:32.594Z,1.03
2019-01-10T19:39:37.055Z,1.04
2019-01-10T19:42:41.446Z,1.03
2019-01-10T19:45:45.778Z,1.02
2019-01-10T19:48:50.223Z,1.01
2019-01-10T19:51:54.574Z,0.99
2019-01-10T19:55:02.779Z,1.02
2019-01-10T19:58:07.126Z,0.98
2019-01-10T20:01:11.632Z,0.95
2019-01-10T20:04:16.087Z,0.94
2019-01-10T20:07:20.447Z,0.89
2019-01-10T20:10:24.735Z,0.92
2019-01-10T20:13:29.144Z,0.82
2019-01-10T20:16:33.552Z,0.79
2019-01-10T20:19:37.858Z,0.78
2019-01-10T20:22:42.217Z,0.82
2019-01-10T20:25:46.543Z,0.74
2019-01-10T20:28:50.893Z,0.72
2019-01-10T20:31:55.207Z,0.79
2019-01-10T20:34:59.529Z,0.68
2019-01-10T20:38:03.964Z,0.73
2019-01-10T20:41:08.317Z,0.76
2019-01-10T20:44:12.596Z,0.76
2019-01-10T20:47:16.970Z,0.75
2019-01-10T20:50:21.298Z,0.62
2019-01-10T20:53:25.622Z,0.62
2019-01-10T20:56:29.954Z,0.66
2019-01-10T20:59:34.297Z,0.67
2019-01-10T21:02:38.604Z,0.62
2019-01-10T21:05:42.973Z,0.58
2019-01-10T21:08:47.311Z,0.69
2019-01-10T21:11:51.682Z,0.60
2019-01-10T21:14:55.974Z,0.71
2019-01-10T21:18:00.288Z,0.62
2019-01-10T21:21:05.273Z,0.58
2019-01-10T21:24:09.813Z,0.59
2019-01-10T21:27:14.178Z,0.54
2019-01-10T21:30:19.671Z,0.58
2019-01-10T21:33:24.087Z,0.53
2019-01-10T21:36:28.483Z,0.62
2019-01-10T21:39:32.832Z,0.61
2019-01-10T21:42:37.149Z,0.63
2019-01-10T21:45:41.713Z,0.60
2019-01-10T21:48:45.998Z,0.58
2019-01-10T21:51:50.797Z,0.61
2019-01-10T21:54:55.125Z,0.59
2019-01-10T21:57:59.491Z,0.55
2019-01-10T22:01:03.958Z,0.60
2019-01-10T22:04:08.282Z,0.67
2019-01-10T22:07:12.695Z,0.68
2019-01-10T22:10:17.143Z,0.63
2019-01-10T22:13:21.432Z,0.55
2019-01-10T22:16:25.868Z,0.61
2019-01-10T22:19:30.233Z,0.57
2019-01-10T22:22:34.478Z,0.52
2019-01-10T22:25:38.793Z,0.54
2019-01-10T22:28:43.251Z,0.55
2019-01-10T22:31:47.732Z,0.50
2019-01-10T22:34:53.022Z,0.49
2019-01-10T22:37:57.359Z,0.55
2019-01-10T22:41:01.823Z,0.51
2019-01-10T22:44:06.290Z,0.50
2019-01-10T22:47:10.593Z,0.50
2019-01-10T22:50:17.087Z,0.54
2019-01-10T22:53:21.423Z,0.47
2019-01-10T22:56:25.801Z,0.51
2019-01-10T22:59:30.213Z,0.47
2019-01-10T23:02:34.563Z,0.49
2019-01-10T23:05:42.208Z,0.48
2019-01-10T23:08:47.202Z,0.51
2019-01-10T23:11:52.328Z,0.57
2019-01-10T23:14:56.630Z,0.42
2019-01-10T23:18:01.064Z,0.42
2019-01-10T23:21:05.552Z,0.46
2019-01-10T23:24:14.819Z,0.49
2019-01-10T23:27:19.152Z,0.47
2019-01-10T23:30:47.426Z,0.48
2019-01-10T23:33:51.801Z,0.46
2019-01-10T23:36:56.171Z,0.47
2019-01-10T23:40:00.491Z,0.52
2019-01-10T23:43:05.007Z,0.52
2019-01-10T23:46:09.337Z,0.48
2019-01-10T23:49:13.624Z,0.51
2019-01-10T23:52:17.892Z,0.52
2019-01-10T23:55:22.211Z,0.51
2019-01-10T23:58:26.575Z,0.46
